createdAt,value
2018-12-18T00:01:20.535Z,13.40
2018-12-18T00:03:52.621Z,13.67
2018-12-18T00:06:21.960Z,13.33
2018-12-18T00:08:50.487Z,14.57
2018-12-18T00:11:19.092Z,14.17
2018-12-18T00:13:47.552Z,13.77
2018-12-18T00:16:17.220Z,13.50
2018-12-18T00:18:45.772Z,13.47
2018-12-18T00:21:16.443Z,14.30
2018-12-18T00:23:44.906Z,14.80
2018-12-18T00:26:13.417Z,13.53
2018-12-18T00:28:42.015Z,14.07
2018-12-18T00:31:11.983Z,14.37
2018-12-18T00:33:45.909Z,12.80
2018-12-18T00:36:11.009Z,13.93
2018-12-18T00:38:41.509Z,15.17
2018-12-18T00:41:10.387Z,14.93
2018-12-18T00:43:39.732Z,14.83
2018-12-18T00:46:13.331Z,15.10
2018-12-18T00:48:41.770Z,15.47
2018-12-18T00:51:10.385Z,15.83
2018-12-18T00:53:39.001Z,16.77
2018-12-18T00:56:07.681Z,16.67
2018-12-18T00:58:36.156Z,17.10
2018-12-18T01:01:09.854Z,16.77
2018-12-18T01:03:38.389Z,17.50
2018-12-18T01:06:06.962Z,17.73
2018-12-18T01:08:35.397Z,17.37
2018-12-18T01:11:10.180Z,17.07
2018-12-18T01:13:38.613Z,17.70
2018-12-18T01:16:10.377Z,18.90
2018-12-18T01:18:38.824Z,19.30
2018-12-18T01:21:11.374Z,19.13
2018-12-18T01:23:39.873Z,18.93
2018-12-18T01:26:09.464Z,18.53
2018-12-18T01:28:37.889Z,19.23
2018-12-18T01:31:11.249Z,17.73
2018-12-18T01:33:40.877Z,17.90
2018-12-18T01:36:09.360Z,19.33
2018-12-18T01:38:38.122Z,19.50
2018-12-18T01:41:06.726Z,19.00
2018-12-18T01:43:35.308Z,18.70
2018-12-18T01:46:03.918Z,17.60
2018-12-18T01:48:33.195Z,18.23
2018-12-18T01:51:01.935Z,17.67
2018-12-18T01:53:30.548Z,18.03
2018-12-18T01:55:59.765Z,17.40
2018-12-18T01:58:28.355Z,18.87
2018-12-18T02:00:57.052Z,18.57
2018-12-18T02:03:26.797Z,19.57
2018-12-18T02:05:55.349Z,18.17
2018-12-18T02:08:24.963Z,18.23
2018-12-18T02:10:58.798Z,18.40
2018-12-18T02:13:27.928Z,19.27
2018-12-18T02:15:58.198Z,18.97
2018-12-18T02:18:27.030Z,19.80
2018-12-18T02:21:01.455Z,18.80
2018-12-18T02:23:30.935Z,18.93
2018-12-18T02:26:00.002Z,18.43
2018-12-18T02:28:33.811Z,18.57
2018-12-18T02:31:08.367Z,17.80
2018-12-18T02:33:39.414Z,19.43
2018-12-18T02:36:08.124Z,19.23
2018-12-18T02:38:37.307Z,21.20
2018-12-18T02:41:06.267Z,19.40
2018-12-18T02:43:36.801Z,24.17
2018-12-18T02:46:06.489Z,19.70
2018-12-18T02:48:37.408Z,19.97
2018-12-18T02:51:07.826Z,21.00
2018-12-18T02:53:36.927Z,20.60
2018-12-18T02:56:10.686Z,22.37
2018-12-18T02:58:39.967Z,21.67
2018-12-18T03:01:10.688Z,21.33
2018-12-18T03:03:39.889Z,22.17
2018-12-18T03:06:10.755Z,23.33
2018-12-18T03:08:43.451Z,22.97
2018-12-18T03:11:17.241Z,23.13
2018-12-18T03:13:46.887Z,23.50
2018-12-18T03:16:15.774Z,23.47
2018-12-18T03:18:44.981Z,22.10
2018-12-18T03:21:19.051Z,23.37
2018-12-18T03:23:49.271Z,24.60
2018-12-18T03:26:23.937Z,22.83
2018-12-18T03:28:53.910Z,23.53
2018-12-18T03:31:23.544Z,23.40
2018-12-18T03:33:53.335Z,22.13
2018-12-18T03:36:22.878Z,21.00
2018-12-18T03:38:52.377Z,22.43
2018-12-18T03:41:22.365Z,21.40
2018-12-18T03:43:56.770Z,21.40
2018-12-18T03:46:26.863Z,20.73
2018-12-18T03:48:56.486Z,20.83
2018-12-18T03:51:26.841Z,19.97
2018-12-18T03:53:55.557Z,19.27
2018-12-18T03:56:25.537Z,19.47
2018-12-18T03:58:55.870Z,19.60
2018-12-18T04:01:24.916Z,19.23
2018-12-18T04:03:56.142Z,18.97
2018-12-18T04:06:25.779Z,20.17
2018-12-18T04:08:56.068Z,19.57
2018-12-18T04:11:25.104Z,18.77
2018-12-18T04:13:55.077Z,18.00
2018-12-18T04:16:24.890Z,18.53
2018-12-18T04:18:54.202Z,18.57
2018-12-18T04:21:23.370Z,18.53
2018-12-18T04:23:51.994Z,18.63
2018-12-18T04:26:23.441Z,18.57
2018-12-18T04:28:52.538Z,18.40
2018-12-18T04:31:23.664Z,20.00
2018-12-18T04:33:52.146Z,18.80
2018-12-18T04:36:22.336Z,19.70
2018-12-18T04:38:51.519Z,19.80
2018-12-18T04:41:22.715Z,19.30
2018-12-18T04:43:51.880Z,18.30
2018-12-18T04:46:21.190Z,19.07
2018-12-18T04:48:50.413Z,17.43
2018-12-18T04:51:20.710Z,19.07
2018-12-18T04:53:50.204Z,18.90
2018-12-18T04:56:20.180Z,19.10
2018-12-18T04:58:49.949Z,20.20
2018-12-18T05:01:22.981Z,18.77
2018-12-18T05:03:52.166Z,18.13
2018-12-18T05:06:23.594Z,18.37
2018-12-18T05:08:56.842Z,18.90
2018-12-18T05:11:25.910Z,18.60
2018-12-18T05:13:55.172Z,18.77
2018-12-18T05:16:27.608Z,19.13
2018-12-18T05:18:56.607Z,19.87
2018-12-18T05:21:25.240Z,20.30
2018-12-18T05:23:55.018Z,18.33
2018-12-18T05:26:24.584Z,18.60
2018-12-18T05:28:54.727Z,18.67
2018-12-18T05:31:25.185Z,20.40
2018-12-18T05:33:54.030Z,19.43
2018-12-18T05:36:23.961Z,18.47
2018-12-18T05:38:53.818Z,20.37
2018-12-18T05:41:23.272Z,19.83
2018-12-18T05:43:52.328Z,19.23
2018-12-18T05:46:22.967Z,18.77
2018-12-18T05:48:53.011Z,19.77
2018-12-18T05:51:23.401Z,18.67
2018-12-18T05:53:55.853Z,18.93
2018-12-18T05:56:24.902Z,18.73
2018-12-18T05:58:59.505Z,19.67
2018-12-18T06:01:30.438Z,21.13
2018-12-18T06:03:59.520Z,19.53
2018-12-18T06:06:30.408Z,18.83
2018-12-18T06:09:00.198Z,19.10
2018-12-18T06:11:33.160Z,22.10
2018-12-18T06:14:03.824Z,19.13
2018-12-18T06:16:32.421Z,18.97
2018-12-18T06:19:03.488Z,19.20
2018-12-18T06:21:31.967Z,21.10
2018-12-18T06:24:01.614Z,20.83
2018-12-18T06:26:30.997Z,19.20
2018-12-18T06:29:02.542Z,20.03
2018-12-18T06:31:32.977Z,20.17
2018-12-18T06:34:01.627Z,19.23
2018-12-18T06:36:35.206Z,20.40
2018-12-18T06:39:07.107Z,19.77
2018-12-18T06:41:36.918Z,19.33
2018-12-18T06:44:10.963Z,20.00
2018-12-18T06:46:40.909Z,20.43
2018-12-18T06:49:14.593Z,20.83
2018-12-18T06:51:44.561Z,19.60
2018-12-18T06:54:37.324Z,20.43
2018-12-18T06:57:09.672Z,20.43
2018-12-18T06:59:39.298Z,20.07
2018-12-18T07:02:10.028Z,20.17
2018-12-18T07:04:39.473Z,23.53
2018-12-18T07:07:09.249Z,20.53
2018-12-18T07:09:37.913Z,20.27
2018-12-18T07:12:06.678Z,18.97
2018-12-18T07:14:35.210Z,18.60
2018-12-18T07:17:03.931Z,17.93
2018-12-18T07:19:32.759Z,19.50
2018-12-18T07:22:03.390Z,18.80
2018-12-18T07:24:32.166Z,18.00
2018-12-18T07:27:08.579Z,19.00
2018-12-18T07:29:37.216Z,16.77
2018-12-18T07:32:08.591Z,17.57
2018-12-18T07:34:37.227Z,19.03
2018-12-18T07:37:07.889Z,16.73
2018-12-18T07:39:38.285Z,18.30
2018-12-18T07:42:06.737Z,16.73
2018-12-18T07:44:35.520Z,16.90
2018-12-18T07:47:05.184Z,18.33
2018-12-18T07:49:46.828Z,17.37
2018-12-18T07:52:15.828Z,16.83
2018-12-18T07:54:46.200Z,17.63
2018-12-18T07:57:22.103Z,16.73
2018-12-18T07:59:50.775Z,18.20
2018-12-18T08:02:19.592Z,17.67
2018-12-18T08:04:48.088Z,18.23
2018-12-18T08:07:19.656Z,17.83
2018-12-18T08:09:48.672Z,18.63
2018-12-18T08:12:23.492Z,18.53
2018-12-18T08:14:52.393Z,17.67
2018-12-18T08:17:21.169Z,18.60
2018-12-18T08:19:49.657Z,18.10
2018-12-18T08:22:22.442Z,18.67
2018-12-18T08:24:52.304Z,19.33
2018-12-18T08:27:20.940Z,18.40
2018-12-18T08:29:49.386Z,18.93
2018-12-18T08:32:17.956Z,18.80
2018-12-18T08:34:46.562Z,18.33
2018-12-18T08:37:15.390Z,18.53
2018-12-18T09:00:16.301Z,17.90
2018-12-18T09:02:45.291Z,18.67
2018-12-18T09:05:13.816Z,19.47
2018-12-18T09:07:43.769Z,17.87
2018-12-18T09:10:12.498Z,17.03
2018-12-18T09:12:41.140Z,18.47
2018-12-18T09:15:15.237Z,18.03
2018-12-18T09:17:48.786Z,17.80
2018-12-18T09:20:18.774Z,18.63
2018-12-18T09:22:47.388Z,18.40
2018-12-18T09:25:16.960Z,18.93
2018-12-18T09:27:45.505Z,16.97
2018-12-18T09:30:16.369Z,17.87
2018-12-18T09:32:45.001Z,16.17
2018-12-18T09:35:14.780Z,19.12
2018-12-18T09:37:44.004Z,19.93
2018-12-18T09:40:16.345Z,17.63
2018-12-18T09:42:50.271Z,17.40
2018-12-18T09:45:18.817Z,17.53
2018-12-18T09:47:48.390Z,17.17
2018-12-18T09:50:16.967Z,17.63
2018-12-18T09:52:49.016Z,18.20
2018-12-18T09:55:20.829Z,17.67
2018-12-18T09:57:54.959Z,17.80
2018-12-18T10:00:23.476Z,19.17
2018-12-18T10:02:52.219Z,20.90
2018-12-18T10:05:23.232Z,18.10
2018-12-18T10:07:55.186Z,19.60
2018-12-18T10:10:23.736Z,16.83
2018-12-18T10:12:57.888Z,18.47
2018-12-18T10:15:27.505Z,17.97
2018-12-18T10:17:57.241Z,17.20
2018-12-18T10:20:25.909Z,18.83
2018-12-18T10:23:04.522Z,17.03
2018-12-18T10:25:33.779Z,16.70
2018-12-18T10:28:03.527Z,19.30
2018-12-18T10:30:32.061Z,18.53
2018-12-18T10:33:03.330Z,15.87
2018-12-18T10:35:36.679Z,15.70
2018-12-18T10:38:03.997Z,16.53
2018-12-18T10:40:32.911Z,15.40
2018-12-18T10:43:01.637Z,15.27
2018-12-18T10:45:32.064Z,14.97
2018-12-18T10:48:02.469Z,15.20
2018-12-18T10:50:31.521Z,15.67
2018-12-18T10:53:00.249Z,15.67
2018-12-18T10:55:29.033Z,16.77
2018-12-18T10:57:57.690Z,15.33
2018-12-18T11:00:31.551Z,14.47
2018-12-18T11:05:09.854Z,15.60
2018-12-18T11:07:39.239Z,14.50
2018-12-18T11:10:08.041Z,15.10
2018-12-18T11:12:39.055Z,13.87
2018-12-18T11:15:09.410Z,15.20
2018-12-18T11:17:38.200Z,14.03
2018-12-18T11:20:08.729Z,14.83
2018-12-18T11:22:37.505Z,16.80
2018-12-18T11:25:15.619Z,14.63
2018-12-18T11:27:44.172Z,15.93
2018-12-18T11:30:13.793Z,14.00
2018-12-18T11:32:42.359Z,13.90
2018-12-18T11:35:12.089Z,15.60
2018-12-18T11:37:40.677Z,12.97
2018-12-18T11:41:39.460Z,14.00
2018-12-18T11:44:08.340Z,13.80
2018-12-18T11:46:37.130Z,14.23
2018-12-18T11:49:07.732Z,15.60
2018-12-18T11:51:36.522Z,13.30
2018-12-18T11:54:10.673Z,15.27
2018-12-18T11:56:39.981Z,13.67
2018-12-18T11:59:11.853Z,16.27
2018-12-18T12:01:40.413Z,14.00
2018-12-18T12:04:08.992Z,14.40
2018-12-18T12:06:46.284Z,14.03
2018-12-18T12:09:14.906Z,12.80
2018-12-18T12:11:43.587Z,14.23
2018-12-18T12:14:12.263Z,15.13
2018-12-18T12:16:45.260Z,13.23
2018-12-18T12:19:13.940Z,17.20
2018-12-18T12:21:42.625Z,14.40
2018-12-18T12:24:11.392Z,14.43
2018-12-18T12:26:43.065Z,12.90
2018-12-18T12:29:11.747Z,15.60
2018-12-18T12:31:40.571Z,14.40
2018-12-18T12:34:10.117Z,13.20
2018-12-18T12:36:39.494Z,16.62
2018-12-18T12:41:54.957Z,12.23
2018-12-18T12:44:26.242Z,15.67
2018-12-18T12:46:54.811Z,13.63
2018-12-18T12:49:36.234Z,12.40
2018-12-18T12:52:04.718Z,11.57
2018-12-18T12:54:39.451Z,12.07
2018-12-18T12:57:08.910Z,12.37
2018-12-18T12:59:37.508Z,12.77
2018-12-18T13:02:05.999Z,13.77
2018-12-18T13:04:37.736Z,13.00
2018-12-18T13:07:06.386Z,12.83
2018-12-18T13:09:36.296Z,10.03
2018-12-18T13:12:04.996Z,11.90
2018-12-18T13:14:35.860Z,10.53
2018-12-18T13:17:04.365Z,10.30
2018-12-18T13:19:35.930Z,9.80
2018-12-18T13:22:04.550Z,11.83
2018-12-18T13:24:42.366Z,12.20
2018-12-18T13:27:22.472Z,10.13
2018-12-18T13:29:51.156Z,10.00
2018-12-18T13:32:22.380Z,13.13
2018-12-18T13:34:51.908Z,9.67
2018-12-18T13:37:21.064Z,12.83
2018-12-18T13:39:49.502Z,13.00
2018-12-18T13:42:18.543Z,12.40
2018-12-18T13:44:47.205Z,10.67
2018-12-18T13:47:16.796Z,10.37
2018-12-18T13:49:48.987Z,8.33
2018-12-18T13:52:17.705Z,14.27
2018-12-18T13:54:47.512Z,19.63
2018-12-18T13:57:16.241Z,22.30
2018-12-18T13:59:44.711Z,24.00
2018-12-18T14:02:13.397Z,24.67
2018-12-18T14:04:41.948Z,25.73
2018-12-18T14:07:10.907Z,27.07
2018-12-18T14:09:39.532Z,24.93
2018-12-18T14:12:15.338Z,26.00
2018-12-18T14:14:43.930Z,25.17
2018-12-18T14:17:17.754Z,24.13
2018-12-18T14:19:48.499Z,26.13
2018-12-18T14:22:17.539Z,26.67
2018-12-18T14:24:57.445Z,25.40
2018-12-18T14:27:27.486Z,25.30
2018-12-18T14:29:56.194Z,25.67
2018-12-18T14:32:36.021Z,26.23
2018-12-18T14:35:09.830Z,26.13
2018-12-18T14:37:45.616Z,26.37
2018-12-18T14:40:14.293Z,28.53
2018-12-18T14:42:45.689Z,27.97
2018-12-18T14:45:14.320Z,27.97
2018-12-18T14:47:44.075Z,26.00
2018-12-18T14:50:12.811Z,25.43
2018-12-18T14:52:45.985Z,26.20
2018-12-18T14:55:15.460Z,27.73
2018-12-18T14:57:58.849Z,27.10
2018-12-18T15:00:27.427Z,26.20
2018-12-18T15:02:56.265Z,27.27
2018-12-18T15:05:25.850Z,29.13
2018-12-18T15:07:54.624Z,28.00
2018-12-18T15:10:24.671Z,29.90
2018-12-18T15:12:59.858Z,30.77
2018-12-18T15:15:29.926Z,32.43
2018-12-18T15:18:00.571Z,31.67
2018-12-18T15:20:29.128Z,31.53
2018-12-18T15:22:58.824Z,31.87
2018-12-18T15:25:28.084Z,31.30
2018-12-18T15:28:09.145Z,31.90
2018-12-18T15:30:37.596Z,32.97
2018-12-18T15:33:13.553Z,31.70
2018-12-18T15:35:42.822Z,33.10
2018-12-18T15:38:12.499Z,32.03
2018-12-18T15:40:41.731Z,32.37
2018-12-18T15:43:14.233Z,31.20
2018-12-18T15:45:42.699Z,31.87
2018-12-18T15:48:16.869Z,31.57
2018-12-18T15:50:45.543Z,31.60
2018-12-18T15:53:20.465Z,31.77
2018-12-18T15:55:49.575Z,31.80
2018-12-18T15:58:19.879Z,30.90
2018-12-18T16:00:48.500Z,31.80
2018-12-18T16:03:18.074Z,32.47
2018-12-18T16:05:46.812Z,32.93
2018-12-18T16:08:26.299Z,30.87
2018-12-18T16:10:56.216Z,30.97
2018-12-18T16:13:28.247Z,31.93
2018-12-18T16:15:56.978Z,32.33
2018-12-18T16:18:47.757Z,34.97
2018-12-18T16:21:16.606Z,33.63
2018-12-18T16:23:45.496Z,35.83
2018-12-18T16:26:14.251Z,32.97
2018-12-18T16:28:48.328Z,34.47
2018-12-18T16:31:17.043Z,33.27
2018-12-18T16:33:45.997Z,33.87
2018-12-18T16:36:14.607Z,33.77
2018-12-18T16:38:43.425Z,35.40
2018-12-18T16:41:12.682Z,35.43
2018-12-18T16:43:54.145Z,33.30
2018-12-18T16:46:23.978Z,33.63
2018-12-18T16:48:52.560Z,34.70
2018-12-18T16:51:23.144Z,35.30
2018-12-18T16:53:51.923Z,33.07
2018-12-18T16:56:20.431Z,30.70
2018-12-18T16:58:51.976Z,33.80
2018-12-18T17:01:21.487Z,34.97
2018-12-18T17:03:52.009Z,33.80
2018-12-18T17:06:21.659Z,34.00
2018-12-18T17:08:52.280Z,37.87
2018-12-18T17:11:21.978Z,36.80
2018-12-18T17:16:56.614Z,33.47
2018-12-18T17:19:26.030Z,33.63
2018-12-18T17:21:56.014Z,34.77
2018-12-18T17:24:27.404Z,35.60
2018-12-18T17:26:58.187Z,34.37
2018-12-18T17:29:27.735Z,32.67
2018-12-18T17:31:57.245Z,33.50
2018-12-18T17:34:30.699Z,34.97
2018-12-18T17:37:00.772Z,39.07
2018-12-18T17:39:42.489Z,32.87
2018-12-18T17:42:12.364Z,34.53
2018-12-18T17:44:42.945Z,34.97
2018-12-18T17:47:11.700Z,33.80
2018-12-18T17:49:50.823Z,34.67
2018-12-18T17:52:19.858Z,33.50
2018-12-18T17:54:54.077Z,34.43
2018-12-18T17:57:29.168Z,35.40
2018-12-18T18:02:59.885Z,37.17
2018-12-18T18:05:28.969Z,34.97
2018-12-18T18:07:57.856Z,35.90
2018-12-18T18:10:27.469Z,36.07
2018-12-18T18:12:58.389Z,33.80
2018-12-18T18:15:27.080Z,36.07
2018-12-18T18:18:04.840Z,34.73
2018-12-18T18:20:34.082Z,36.70
2018-12-18T18:23:03.138Z,34.93
2018-12-18T18:25:31.991Z,34.53
2018-12-18T18:28:07.209Z,35.00
2018-12-18T18:30:36.023Z,33.37
2018-12-18T18:33:08.242Z,34.10
2018-12-18T18:35:37.014Z,35.07
2018-12-18T18:38:09.173Z,34.40
2018-12-18T18:40:39.135Z,32.70
2018-12-18T18:43:08.234Z,31.63
2018-12-18T18:45:41.991Z,32.90
2018-12-18T18:48:10.745Z,37.17
2018-12-18T18:50:39.941Z,33.60
2018-12-18T18:53:12.068Z,41.07
2018-12-18T18:55:41.417Z,49.73
2018-12-18T18:58:20.077Z,41.00
2018-12-18T19:00:48.966Z,38.80
2018-12-18T19:03:18.237Z,38.33
2018-12-18T19:05:50.006Z,37.63
2018-12-18T19:08:20.680Z,36.83
2018-12-18T19:10:49.410Z,38.03
2018-12-18T19:13:17.984Z,37.80
2018-12-18T19:15:46.712Z,36.60
2018-12-18T19:18:16.291Z,37.27
2018-12-18T19:20:44.840Z,39.27
2018-12-18T19:23:15.412Z,38.63
2018-12-18T19:25:44.362Z,39.77
2018-12-18T19:28:27.298Z,38.03
2018-12-18T19:30:55.886Z,40.43
2018-12-18T19:33:24.967Z,35.83
2018-12-18T19:35:55.019Z,35.83
2018-12-18T19:38:24.964Z,35.60
2018-12-18T19:40:53.659Z,36.87
2018-12-18T19:43:23.720Z,36.83
2018-12-18T19:45:54.731Z,35.70
2018-12-18T19:48:23.730Z,36.87
2018-12-18T19:50:52.519Z,37.70
2018-12-18T19:53:28.883Z,35.47
2018-12-18T19:55:57.880Z,36.10
2018-12-18T19:58:29.333Z,36.60
2018-12-18T20:00:58.778Z,36.13
2018-12-18T20:03:27.834Z,35.07
2018-12-18T20:06:00.703Z,36.33
2018-12-18T20:08:31.404Z,35.27
2018-12-18T20:11:02.218Z,35.63
2018-12-18T20:13:33.064Z,36.67
2018-12-18T20:16:03.543Z,36.43
2018-12-18T20:18:32.353Z,37.30
2018-12-18T20:21:01.358Z,38.83
2018-12-18T20:23:30.778Z,36.70
2018-12-18T20:26:00.402Z,35.63
2018-12-18T20:28:30.481Z,37.47
2018-12-18T20:31:00.080Z,36.03
2018-12-18T20:33:28.985Z,33.00
2018-12-18T20:35:59.553Z,34.63
2018-12-18T20:38:29.602Z,33.80
2018-12-18T20:40:58.336Z,36.60
2018-12-18T20:43:28.357Z,32.73
2018-12-18T20:45:57.110Z,31.77
2018-12-18T20:48:25.682Z,31.67
2018-12-18T20:50:54.416Z,33.07
2018-12-18T20:53:23.645Z,32.57
2018-12-18T20:55:52.882Z,33.63
2018-12-18T20:58:21.411Z,31.83
2018-12-18T21:00:50.204Z,31.67
2018-12-18T21:03:19.854Z,31.93
2018-12-18T21:05:48.684Z,32.67
2018-12-18T21:08:23.421Z,31.50
2018-12-18T21:10:49.247Z,32.50
2018-12-18T21:13:23.884Z,32.27
2018-12-18T21:15:52.434Z,34.90
2018-12-18T21:18:21.056Z,31.80
2018-12-18T21:20:49.795Z,33.00
2018-12-18T21:23:19.006Z,31.57
2018-12-18T21:25:47.992Z,32.53
2018-12-18T21:28:17.736Z,33.50
2018-12-18T21:30:47.696Z,34.23
2018-12-18T21:33:16.488Z,35.03
2018-12-18T21:35:45.758Z,33.93
2018-12-18T21:38:14.547Z,35.70
2018-12-18T21:40:43.147Z,34.63
2018-12-18T21:43:15.094Z,35.23
2018-12-18T21:45:43.972Z,35.73
2018-12-18T21:48:12.811Z,42.10
2018-12-18T21:50:41.429Z,35.03
2018-12-18T21:53:16.589Z,34.27
2018-12-18T21:55:45.193Z,36.70
2018-12-18T21:58:14.671Z,35.57
2018-12-18T22:00:43.392Z,31.07
2018-12-18T22:03:12.019Z,34.30
2018-12-18T22:05:40.770Z,33.77
2018-12-18T22:08:10.126Z,35.27
2018-12-18T22:10:38.845Z,35.60
2018-12-18T22:13:07.559Z,35.10
2018-12-18T22:15:36.524Z,36.40
2018-12-18T22:18:07.192Z,35.57
2018-12-18T22:20:35.905Z,37.63
2018-12-18T22:23:04.550Z,38.13
2018-12-18T22:25:35.259Z,39.47
2018-12-18T22:28:05.506Z,39.07
2018-12-18T22:30:34.271Z,38.73
2018-12-18T22:33:04.711Z,40.47
2018-12-18T22:35:34.065Z,38.57
2018-12-18T22:38:03.865Z,40.37
2018-12-18T22:40:33.305Z,41.27
2018-12-18T22:43:02.074Z,39.67
2018-12-18T22:45:31.521Z,39.87
2018-12-18T22:48:01.247Z,42.23
2018-12-18T22:50:31.723Z,44.73
2018-12-18T22:53:02.248Z,43.93
2018-12-18T22:55:33.395Z,42.80
2018-12-18T22:58:03.757Z,45.03
2018-12-18T23:01:41.899Z,50.05
2018-12-18T23:04:15.889Z,44.93
2018-12-18T23:06:44.939Z,47.13
2018-12-18T23:09:14.985Z,47.83
2018-12-18T23:11:44.713Z,46.40
2018-12-18T23:14:16.911Z,44.20
2018-12-18T23:16:46.076Z,45.53
2018-12-18T23:19:16.105Z,43.97
2018-12-18T23:21:48.492Z,47.13
2018-12-18T23:24:17.150Z,44.37
2018-12-18T23:26:53.155Z,48.50
2018-12-18T23:29:22.127Z,44.50
2018-12-18T23:31:50.934Z,48.13
2018-12-18T23:34:19.623Z,45.10
2018-12-18T23:36:54.727Z,47.73
2018-12-18T23:39:23.254Z,48.60
2018-12-18T23:41:54.053Z,47.87
2018-12-18T23:44:22.694Z,47.53
2018-12-18T23:46:51.307Z,46.23
2018-12-18T23:49:21.993Z,47.33
2018-12-18T23:51:50.454Z,44.40
2018-12-18T23:54:36.249Z,45.00
2018-12-18T23:57:04.818Z,46.50
2018-12-18T23:59:34.180Z,47.63
